Time;durP1;ratioP1;P1;durP2;ratioP2;P2;SDS_P1;SDS_P2;PMS_P1;PMS_P2;Temp;Humidity;BMP_temperature;BMP_pressure;BME280_temperature;BME280_humidity;BME280_pressure;Samples;Min_cycle;Max_cycle;Signal;HPM_P1;HPM_P2
2023/04/05 00:00:29;;;;;;;4.15;1.20;;;13.60;22.00;;;;;;20836808;28;20103;-55
2023/04/05 00:10:30;;;;;;;2.10;1.00;;;13.40;22.10;;;;;;20835632;28;20473;-56
2023/04/05 00:20:32;;;;;;;1.00;0.70;;;13.40;22.00;;;;;;20832572;28;20060;-56
2023/04/05 00:30:33;;;;;;;1.05;0.70;;;13.40;21.70;;;;;;20834225;28;20064;-55
2023/04/05 00:40:35;;;;;;;0.85;0.80;;;13.40;21.50;;;;;;20833421;28;20057;-56
2023/04/05 00:50:37;;;;;;;2.78;0.90;;;13.20;21.50;;;;;;20832789;28;20045;-56
2023/04/05 01:00:39;;;;;;;2.53;1.13;;;13.10;21.60;;;;;;20830759;28;20041;-56
2023/04/05 01:10:47;;;;;;;2.25;0.85;;;13.00;21.50;;;;;;20830350;28;20049;-55
2023/04/05 01:20:58;;;;;;;2.85;1.17;;;12.80;21.90;;;;;;20829713;28;20185;-56
2023/04/05 01:31:11;;;;;;;2.28;1.35;;;12.70;22.20;;;;;;20830359;28;20498;-56
2023/04/05 01:41:13;;;;;;;2.33;1.00;;;12.60;22.50;;;;;;20830228;28;20042;-55
2023/04/05 01:51:14;;;;;;;3.00;0.90;;;12.40;22.90;;;;;;20829787;28;20048;-56
2023/04/05 02:01:15;;;;;;;1.75;1.00;;;12.20;23.30;;;;;;20828119;28;20099;-56
2023/04/05 02:11:17;;;;;;;3.90;1.13;;;12.20;23.50;;;;;;20827821;28;20049;-56
2023/04/05 02:21:20;;;;;;;1.88;0.90;;;12.00;24.40;;;;;;20827355;28;20073;-56
2023/04/05 02:31:22;;;;;;;2.95;0.98;;;11.90;24.20;;;;;;20827021;28;20103;-55
2023/04/05 02:41:24;;;;;;;0.88;0.60;;;11.90;24.20;;;;;;20834841;28;20103;-56
2023/04/05 02:51:26;;;;;;;2.95;0.93;;;11.70;23.40;;;;;;20841853;28;20060;-56
2023/04/05 03:01:27;;;;;;;2.20;0.90;;;11.60;23.60;;;;;;20839866;28;20053;-57
2023/04/05 03:11:28;;;;;;;1.13;0.80;;;11.40;23.20;;;;;;20840157;28;20046;-56
2023/04/05 03:21:30;;;;;;;1.80;0.90;;;11.20;23.60;;;;;;20838470;28;20099;-55
2023/04/05 03:31:32;;;;;;;2.17;1.17;;;11.20;23.10;;;;;;20839070;28;20353;-56
2023/04/05 03:41:33;;;;;;;1.83;1.10;;;11.20;23.50;;;;;;20838159;28;20402;-55
2023/04/05 03:51:35;;;;;;;3.90;1.42;;;11.20;24.20;;;;;;20836225;28;20049;-56
2023/04/05 04:01:37;;;;;;;2.47;1.02;;;10.80;25.40;;;;;;20836093;28;20041;-56
2023/04/05 04:11:38;;;;;;;2.60;1.08;;;10.50;26.70;;;;;;20835381;28;20132;-56
2023/04/05 04:21:43;;;;;;;1.58;0.85;;;10.10;28.20;;;;;;20833551;28;20056;-57
2023/04/05 04:31:44;;;;;;;1.38;0.80;;;9.70;28.90;;;;;;20832789;28;20050;-56
2023/04/05 04:41:46;;;;;;;3.60;1.10;;;9.00;30.70;;;;;;20831929;28;20065;-55
2023/04/05 04:51:47;;;;;;;2.53;1.00;;;8.50;32.40;;;;;;20832788;28;20057;-56
2023/04/05 05:01:49;;;;;;;2.55;1.10;;;8.20;32.80;;;;;;20831768;28;20045;-56
2023/04/05 05:11:50;;;;;;;2.97;1.13;;;8.10;33.00;;;;;;20829842;28;20065;-56
2023/04/05 05:21:52;;;;;;;5.63;1.30;;;8.00;33.10;;;;;;20830787;28;20513;-55
2023/04/05 05:31:54;;;;;;;3.70;1.25;;;7.80;33.00;;;;;;20830092;28;20091;-55
2023/04/05 05:41:56;;;;;;;2.63;1.23;;;7.60;33.00;;;;;;20829830;28;20041;-55
2023/04/05 05:51:57;;;;;;;3.72;1.30;;;7.50;33.20;;;;;;20829510;28;20491;-55
2023/04/05 06:01:58;;;;;;;3.03;1.58;;;7.30;33.40;;;;;;20829123;28;20049;-55
2023/04/05 06:12:00;;;;;;;2.00;1.48;;;7.30;33.30;;;;;;20830103;28;20057;-56
2023/04/05 06:22:02;;;;;;;4.65;1.50;;;7.30;33.00;;;;;;20843759;28;20490;-55
2023/04/05 06:32:03;;;;;;;5.70;1.50;;;7.30;33.30;;;;;;20842228;28;20062;-56
2023/04/05 06:42:05;;;;;;;12.55;2.17;;;7.50;32.00;;;;;;20840816;28;20041;-56
2023/04/05 06:52:07;;;;;;;7.45;2.30;;;8.00;31.60;;;;;;20840922;28;20409;-55
2023/04/05 07:02:08;;;;;;;7.05;1.70;;;8.40;31.50;;;;;;20840465;28;20099;-55
2023/04/05 07:12:10;;;;;;;9.32;1.90;;;8.80;29.90;;;;;;20840417;28;20064;-55
2023/04/05 07:22:11;;;;;;;5.00;1.67;;;9.20;29.20;;;;;;20839616;28;20050;-55
2023/04/05 07:32:13;;;;;;;9.60;2.38;;;9.40;29.30;;;;;;20836532;28;20049;-55
2023/04/05 07:42:16;;;;;;;9.68;4.32;;;9.70;29.10;;;;;;20837166;28;20437;-56
2023/04/05 07:52:18;;;;;;;4.43;1.90;;;10.00;28.30;;;;;;20834581;28;20053;-57
2023/04/05 08:02:19;;;;;;;4.32;2.22;;;10.60;23.90;;;;;;20835099;28;20077;-56
2023/04/05 08:12:21;;;;;;;2.85;1.00;;;11.50;24.80;;;;;;20835218;28;20418;-60
2023/04/05 08:22:22;;;;;;;3.53;1.08;;;12.00;22.10;;;;;;20834234;28;20050;-58
2023/04/05 08:32:24;;;;;;;4.45;1.05;;;12.40;19.70;;;;;;20833520;28;20045;-56
2023/04/05 08:42:30;;;;;;;4.78;0.90;;;12.70;18.60;;;;;;20830358;28;20180;-56
2023/04/05 08:52:33;;;;;;;2.42;1.05;;;13.00;18.50;;;;;;20832835;28;20463;-59
2023/04/05 09:02:36;;;;;;;2.80;0.80;;;13.40;17.70;;;;;;20830540;28;20057;-53
2023/04/05 09:12:40;;;;;;;2.35;0.90;;;13.70;15.80;;;;;;20831265;28;20053;-54
2023/04/05 09:22:45;;;;;;;1.90;0.98;;;13.70;15.70;;;;;;20831555;28;20463;-56
2023/04/05 09:32:47;;;;;;;1.60;0.80;;;13.80;16.00;;;;;;20830584;28;20046;-58
2023/04/05 09:42:48;;;;;;;8.35;1.42;;;14.10;15.80;;;;;;20830772;28;20049;-57
2023/04/05 09:52:51;;;;;;;3.70;0.80;;;14.20;16.50;;;;;;20844043;28;20418;-57
2023/04/05 10:02:55;;;;;;;1.77;0.80;;;14.40;16.40;;;;;;20846320;28;20052;-56
2023/04/05 10:12:56;;;;;;;4.28;1.00;;;14.70;16.10;;;;;;20826567;28;20077;-58
2023/04/05 10:23:08;;;;;;;1.90;0.75;;;15.10;16.30;;;;;;20844505;28;20049;-55
2023/04/05 10:33:26;;;;;;;1.95;0.90;;;15.30;15.20;;;;;;20837687;28;20049;-56
2023/04/05 10:43:30;;;;;;;1.08;0.63;;;15.50;15.80;;;;;;20825722;28;20053;-57
2023/04/05 10:53:33;;;;;;;3.53;1.10;;;16.00;14.90;;;;;;20839568;28;20383;-60
2023/04/05 11:03:43;;;;;;;1.90;0.60;;;16.20;15.10;;;;;;20834812;28;20084;-58
2023/04/05 11:13:48;;;;;;;1.27;0.88;;;16.50;15.20;;;;;;20830162;28;20042;-60
2023/04/05 11:24:02;;;;;;;3.38;0.80;;;16.80;14.70;;;;;;20834854;28;20088;-57
2023/04/05 11:34:10;;;;;;;3.80;0.97;;;17.00;13.60;;;;;;20831426;28;20056;-56
2023/04/05 11:44:16;;;;;;;5.40;1.00;;;17.10;13.60;;;;;;20831935;28;20045;-57
2023/04/05 11:54:31;;;;;;;1.50;0.80;;;17.40;12.80;;;;;;20837400;28;20053;-58
2023/04/05 12:04:36;;;;;;;4.97;0.90;;;17.80;11.90;;;;;;20836798;28;20045;-57
2023/04/05 12:14:38;;;;;;;5.00;0.88;;;18.00;12.10;;;;;;20835117;28;20136;-57
2023/04/05 12:24:39;;;;;;;2.47;0.85;;;18.10;12.20;;;;;;20834189;28;20049;-56
2023/04/05 12:34:46;;;;;;;5.03;1.10;;;18.20;11.80;;;;;;20834153;28;20050;-57
2023/04/05 12:45:05;;;;;;;1.42;0.90;;;18.30;10.80;;;;;;20833603;28;20045;-58
2023/04/05 12:55:14;;;;;;;3.28;1.10;;;18.60;11.00;;;;;;20831534;28;20046;-57
2023/04/05 13:05:16;;;;;;;2.88;1.02;;;18.70;11.30;;;;;;20832646;28;20128;-59
2023/04/05 13:15:18;;;;;;;1.95;0.93;;;18.80;11.20;;;;;;20831340;28;20096;-58
2023/04/05 13:25:19;;;;;;;1.85;0.82;;;19.10;11.20;;;;;;20829948;28;20111;-58
2023/04/05 13:35:20;;;;;;;1.67;0.60;;;19.30;11.00;;;;;;20830159;28;20136;-60
2023/04/05 13:45:22;;;;;;;2.33;0.77;;;19.50;10.80;;;;;;20828958;28;20050;-59
2023/04/05 13:55:23;;;;;;;2.63;0.65;;;19.50;10.70;;;;;;20829594;28;20487;-56
2023/04/05 14:05:26;;;;;;;2.25;0.93;;;19.60;10.90;;;;;;20829459;28;20495;-58
2023/04/05 14:15:28;;;;;;;3.35;0.80;;;19.80;11.60;;;;;;20828706;28;20053;-57
2023/04/05 14:25:30;;;;;;;1.47;0.80;;;20.10;11.50;;;;;;20828993;28;20050;-57
2023/04/05 14:35:31;;;;;;;1.80;0.98;;;20.20;11.80;;;;;;20833643;28;20049;-57
2023/04/05 14:45:33;;;;;;;1.15;0.88;;;20.30;11.70;;;;;;20842537;28;20140;-58
2023/04/05 14:55:35;;;;;;;2.88;1.42;;;20.20;11.80;;;;;;20840783;28;20049;-58
2023/04/05 15:05:36;;;;;;;3.30;0.68;;;20.30;12.10;;;;;;20841357;28;20052;-57
2023/04/05 15:15:38;;;;;;;1.77;0.77;;;20.50;12.00;;;;;;20840104;28;20057;-57
2023/04/05 15:25:40;;;;;;;2.65;0.60;;;20.50;11.90;;;;;;20839985;28;20049;-56
2023/04/05 15:35:41;;;;;;;1.63;0.60;;;20.60;11.90;;;;;;20839160;28;20414;-58
2023/04/05 15:45:43;;;;;;;0.85;0.50;;;20.70;12.20;;;;;;20838260;28;20049;-56
2023/04/05 15:55:44;;;;;;;1.08;0.60;;;20.70;12.40;;;;;;20837516;28;20078;-59
2023/04/05 16:05:46;;;;;;;1.95;0.70;;;20.70;12.50;;;;;;20835426;28;20054;-59
2023/04/05 16:15:48;;;;;;;1.73;1.17;;;20.80;12.50;;;;;;20835013;28;20528;-57
2023/04/05 16:25:49;;;;;;;1.52;0.70;;;20.80;12.50;;;;;;20834376;28;20049;-59
2023/04/05 16:35:51;;;;;;;3.45;2.25;;;20.90;12.70;;;;;;20834175;28;20045;-60
2023/04/05 16:45:52;;;;;;;2.70;1.30;;;20.80;12.80;;;;;;20833836;28;20045;-57
2023/04/05 16:55:54;;;;;;;1.80;0.70;;;20.90;12.90;;;;;;20831062;28;20060;-56
2023/04/05 17:05:55;;;;;;;3.10;0.60;;;20.90;13.40;;;;;;20832343;28;20388;-56
2023/04/05 17:15:57;;;;;;;1.55;0.95;;;20.90;13.20;;;;;;20831228;28;20058;-57
2023/04/05 17:25:59;;;;;;;1.67;0.88;;;20.80;13.40;;;;;;20831009;28;20053;-57
2023/04/05 17:36:02;;;;;;;0.87;0.60;;;20.80;13.40;;;;;;20829045;28;20057;-57
2023/04/05 17:46:04;;;;;;;1.47;0.67;;;20.70;13.70;;;;;;20830222;28;20049;-56
2023/04/05 17:56:05;;;;;;;0.90;0.60;;;20.60;13.80;;;;;;20829731;28;20060;-57
2023/04/05 18:06:07;;;;;;;1.95;0.80;;;20.40;13.80;;;;;;20829228;28;20111;-56
2023/04/05 18:16:08;;;;;;;2.97;1.70;;;20.20;13.80;;;;;;20844172;28;20410;-58
2023/04/05 18:26:12;;;;;;;6.65;3.90;;;20.20;14.20;;;;;;20843235;28;20082;-56
2023/04/05 18:36:13;;;;;;;4.70;2.10;;;20.10;14.60;;;;;;20843879;28;20054;-57
2023/04/05 18:46:17;;;;;;;15.48;6.03;;;19.90;14.80;;;;;;20842376;28;20049;-56
2023/04/05 18:56:18;;;;;;;10.93;5.95;;;19.70;15.50;;;;;;20841092;28;20072;-57
2023/04/05 19:06:20;;;;;;;11.38;5.75;;;19.40;15.70;;;;;;20838940;28;20053;-58
2023/04/05 19:16:21;;;;;;;10.35;6.25;;;19.20;16.10;;;;;;20837994;28;20062;-56
2023/04/05 19:26:22;;;;;;;16.83;9.15;;;19.10;16.30;;;;;;20838158;28;20509;-57
2023/04/05 19:36:24;;;;;;;11.95;6.13;;;19.00;16.70;;;;;;20838595;28;20475;-58
2023/04/05 19:46:31;;;;;;;7.97;5.30;;;18.70;17.00;;;;;;20835722;28;20053;-56
2023/04/05 19:56:36;;;;;;;9.95;5.35;;;18.40;17.60;;;;;;20834401;28;20049;-56
2023/04/05 20:06:38;;;;;;;13.00;6.95;;;18.20;18.20;;;;;;20836788;28;20099;-56
2023/04/05 20:16:40;;;;;;;8.75;5.47;;;17.90;18.90;;;;;;20833758;28;20072;-56
2023/04/05 20:26:42;;;;;;;8.10;4.35;;;17.90;19.00;;;;;;20833183;28;20061;-57
2023/04/05 20:36:57;;;;;;;10.20;5.15;;;17.70;20.80;;;;;;20833908;28;20050;-57
2023/04/05 20:46:59;;;;;;;19.45;10.75;;;17.30;22.20;;;;;;20833090;28;20053;-56
2023/04/05 20:57:01;;;;;;;15.82;11.13;;;17.00;22.70;;;;;;20831432;28;20041;-56
2023/04/05 21:07:02;;;;;;;11.13;7.00;;;16.80;22.80;;;;;;20831230;28;20080;-59
2023/04/05 21:17:04;;;;;;;23.27;12.88;;;16.60;23.00;;;;;;20829359;28;20049;-57
2023/04/05 21:27:05;;;;;;;10.15;5.07;;;16.50;23.40;;;;;;20830445;28;20048;-58
2023/04/05 21:37:07;;;;;;;7.72;3.63;;;16.30;23.40;;;;;;20829744;28;20049;-57
2023/04/05 21:47:08;;;;;;;6.32;2.58;;;16.30;23.10;;;;;;20839599;28;20049;-57
2023/04/05 21:57:09;;;;;;;6.82;3.00;;;16.20;24.60;;;;;;20846868;28;20053;-57
2023/04/05 22:07:11;;;;;;;4.95;2.35;;;15.80;25.70;;;;;;20845747;28;20061;-58
2023/04/05 22:17:12;;;;;;;6.93;2.20;;;15.50;26.00;;;;;;20845385;28;20095;-57
2023/04/05 22:27:14;;;;;;;4.82;1.95;;;15.40;26.00;;;;;;20844843;28;20053;-58
2023/04/05 22:37:15;;;;;;;9.95;3.20;;;15.30;26.60;;;;;;20843954;28;20068;-57
2023/04/05 22:47:17;;;;;;;10.10;3.47;;;15.00;27.50;;;;;;20841983;28;20103;-58
2023/04/05 22:57:18;;;;;;;6.13;2.55;;;15.10;27.60;;;;;;20841310;28;20046;-56
2023/04/05 23:07:19;;;;;;;4.93;2.63;;;15.00;27.70;;;;;;20842086;28;20119;-57
2023/04/05 23:17:21;;;;;;;8.95;3.22;;;14.90;26.90;;;;;;20840197;28;20454;-57
2023/04/05 23:27:22;;;;;;;5.55;1.98;;;15.00;25.60;;;;;;20840562;28;20060;-56
2023/04/05 23:37:24;;;;;;;2.22;1.23;;;15.00;23.80;;;;;;20838059;28;20041;-56
2023/04/05 23:47:25;;;;;;;6.40;1.50;;;14.90;22.60;;;;;;20839325;28;20057;-56
2023/04/05 23:57:27;;;;;;;3.65;1.40;;;15.00;21.10;;;;;;20838530;28;20068;-57
